createdAt,value
2023-01-07T00:00:30.009Z,7.60
2023-01-07T00:02:31.880Z,7.70
2023-01-07T00:04:33.674Z,7.70
2023-01-07T00:06:37.271Z,7.70
2023-01-07T00:08:41.782Z,7.70
2023-01-07T00:10:43.433Z,7.70
2023-01-07T00:12:45.180Z,7.70
2023-01-07T00:14:47.013Z,7.70
2023-01-07T00:16:48.749Z,7.70
2023-01-07T00:18:55.314Z,7.70
2023-01-07T00:21:01.083Z,7.70
2023-01-07T00:23:02.923Z,7.70
2023-01-07T00:25:05.004Z,7.80
2023-01-07T00:27:07.200Z,7.80
2023-01-07T00:29:09.554Z,7.80
2023-01-07T00:31:19.425Z,7.80
2023-01-07T00:33:22.510Z,7.80
2023-01-07T00:35:24.492Z,7.80
2023-01-07T00:37:45.389Z,7.80
2023-01-07T00:39:47.211Z,7.80
2023-01-07T00:42:09.753Z,7.70
2023-01-07T00:44:11.558Z,7.70
2023-01-07T00:46:15.604Z,7.70
2023-01-07T00:48:18.913Z,7.70
2023-01-07T00:50:22.330Z,7.70
2023-01-07T00:52:24.126Z,7.70
2023-01-07T00:54:26.015Z,7.70
2023-01-07T00:56:27.980Z,7.60
2023-01-07T00:58:29.795Z,7.60
2023-01-07T01:00:32.163Z,7.60
2023-01-07T01:02:34.152Z,7.60
2023-01-07T01:04:35.990Z,7.60
2023-01-07T01:06:37.607Z,7.70
2023-01-07T01:08:41.836Z,7.60
2023-01-07T01:10:44.094Z,7.60
2023-01-07T01:12:47.487Z,7.60
2023-01-07T01:14:49.301Z,7.60
2023-01-07T01:16:50.995Z,7.60
2023-01-07T01:18:52.723Z,7.60
2023-01-07T01:20:55.193Z,7.60
2023-01-07T01:22:57.196Z,7.60
2023-01-07T01:24:59.090Z,7.60
2023-01-07T01:27:00.798Z,7.60
2023-01-07T01:29:02.550Z,7.60
2023-01-07T01:31:05.057Z,7.70
2023-01-07T01:33:06.814Z,7.60
2023-01-07T01:35:08.941Z,7.60
2023-01-07T01:37:10.569Z,7.60
2023-01-07T01:39:12.886Z,7.60
2023-01-07T01:41:16.634Z,7.60
2023-01-07T01:43:37.399Z,7.50
2023-01-07T01:45:39.238Z,7.50
2023-01-07T01:47:48.122Z,7.50
2023-01-07T01:50:05.145Z,7.50
2023-01-07T01:52:12.267Z,7.40
2023-01-07T01:54:16.388Z,7.40
2023-01-07T01:56:22.741Z,7.50
2023-01-07T01:58:36.495Z,7.40
2023-01-07T02:00:38.640Z,7.40
2023-01-07T02:02:47.142Z,7.40
2023-01-07T02:04:49.131Z,7.40
2023-01-07T02:06:57.685Z,7.50
2023-01-07T02:08:59.724Z,7.50
2023-01-07T02:11:11.844Z,7.60
2023-01-07T02:13:31.157Z,7.60
2023-01-07T02:15:33.106Z,7.50
2023-01-07T02:18:06.705Z,7.50
2023-01-07T02:20:29.692Z,7.50
2023-01-07T02:22:39.961Z,7.50
2023-01-07T02:24:59.929Z,7.50
2023-01-07T02:27:21.123Z,7.50
2023-01-07T02:29:22.870Z,7.60
2023-01-07T02:32:09.395Z,7.60
2023-01-07T02:34:14.705Z,7.60
2023-01-07T02:36:51.783Z,7.60
2023-01-07T02:39:11.706Z,7.60
2023-01-07T02:41:43.956Z,7.60
2023-01-07T02:44:00.480Z,7.60
2023-01-07T02:46:28.188Z,7.50
2023-01-07T02:48:31.507Z,7.50
2023-01-07T02:50:33.385Z,7.50
2023-01-07T02:52:36.608Z,7.60
2023-01-07T02:54:38.359Z,7.60
2023-01-07T02:56:51.884Z,7.60
2023-01-07T02:59:02.981Z,7.50
2023-01-07T03:01:36.859Z,7.50
2023-01-07T03:04:09.391Z,7.50
2023-01-07T03:06:30.186Z,7.50
2023-01-07T03:08:54.966Z,7.50
2023-01-07T03:11:05.847Z,7.50
2023-01-07T03:13:18.034Z,7.50
2023-01-07T03:15:29.036Z,7.40
2023-01-07T03:17:40.063Z,7.40
2023-01-07T03:19:47.602Z,7.40
2023-01-07T03:21:50.284Z,7.40
2023-01-07T03:23:56.052Z,7.40
2023-01-07T03:26:03.126Z,7.40
2023-01-07T03:28:07.128Z,7.50
2023-01-07T03:30:14.275Z,7.50
2023-01-07T03:32:19.137Z,7.60
2023-01-07T03:34:23.680Z,7.60
2023-01-07T03:36:34.383Z,7.60
2023-01-07T03:38:38.639Z,7.60
2023-01-07T03:40:40.955Z,7.60
2023-01-07T03:42:46.859Z,7.60
2023-01-07T03:44:48.686Z,7.60
2023-01-07T03:46:52.058Z,7.50
2023-01-07T03:48:54.389Z,7.50
2023-01-07T03:50:56.055Z,7.50
2023-01-07T03:52:57.874Z,7.50
2023-01-07T03:54:59.544Z,7.40
2023-01-07T03:57:01.353Z,7.40
2023-01-07T03:59:03.750Z,7.40
2023-01-07T04:01:06.446Z,7.50
2023-01-07T04:03:08.307Z,7.40
2023-01-07T04:05:10.920Z,7.40
2023-01-07T04:07:13.876Z,7.50
2023-01-07T04:09:15.794Z,7.50
2023-01-07T04:11:17.605Z,7.40
2023-01-07T04:13:19.326Z,7.40
2023-01-07T04:15:21.504Z,7.50
2023-01-07T04:17:23.322Z,7.50
2023-01-07T04:19:25.080Z,7.50
2023-01-07T04:21:26.826Z,7.50
2023-01-07T04:23:29.448Z,7.50
2023-01-07T04:25:32.439Z,7.50
2023-01-07T04:27:34.648Z,7.40
2023-01-07T04:29:36.857Z,7.40
2023-01-07T04:31:38.710Z,7.40
2023-01-07T04:33:40.751Z,7.30
2023-01-07T04:35:45.673Z,7.30
2023-01-07T04:37:47.390Z,7.30
2023-01-07T04:39:49.154Z,7.40
2023-01-07T04:41:50.782Z,7.30
2023-01-07T04:43:52.415Z,7.30
2023-01-07T04:45:54.138Z,7.30
2023-01-07T04:47:56.538Z,7.30
2023-01-07T04:49:58.236Z,7.30
2023-01-07T04:51:59.926Z,7.40
2023-01-07T04:54:01.816Z,7.30
2023-01-07T04:56:06.408Z,7.30
2023-01-07T04:58:08.333Z,7.30
2023-01-07T05:00:11.205Z,7.30
2023-01-07T05:02:12.999Z,7.20
2023-01-07T05:04:14.756Z,7.30
2023-01-07T05:06:16.553Z,7.30
2023-01-07T05:08:18.354Z,7.30
2023-01-07T05:10:20.520Z,7.30
2023-01-07T05:12:22.194Z,7.40
2023-01-07T05:14:23.961Z,7.40
2023-01-07T05:16:25.711Z,7.30
2023-01-07T05:18:27.462Z,7.40
2023-01-07T05:20:29.190Z,7.40
2023-01-07T05:22:31.058Z,7.40
2023-01-07T05:24:33.083Z,7.30
2023-01-07T05:26:34.853Z,7.30
2023-01-07T05:28:36.890Z,7.30
2023-01-07T05:30:39.503Z,7.30
2023-01-07T05:32:41.400Z,7.20
2023-01-07T05:34:43.122Z,7.20
2023-01-07T05:36:45.092Z,7.30
2023-01-07T05:38:46.919Z,7.30
2023-01-07T05:40:50.111Z,7.30
2023-01-07T05:42:51.919Z,7.30
2023-01-07T05:44:53.918Z,7.20
2023-01-07T05:46:55.665Z,7.20
2023-01-07T05:48:57.703Z,7.20
2023-01-07T05:50:59.499Z,7.20
2023-01-07T05:53:01.320Z,7.20
2023-01-07T05:55:03.183Z,7.20
2023-01-07T05:57:04.947Z,7.20
2023-01-07T05:59:06.636Z,7.20
2023-01-07T06:01:08.694Z,7.20
2023-01-07T06:03:10.514Z,7.10
2023-01-07T06:05:12.351Z,7.20
2023-01-07T06:07:14.124Z,7.10
2023-01-07T06:09:15.785Z,7.10
2023-01-07T06:11:17.504Z,7.10
2023-01-07T06:13:19.242Z,7.10
2023-01-07T06:15:20.961Z,7.00
2023-01-07T06:17:22.828Z,7.00
2023-01-07T06:19:26.366Z,7.00
2023-01-07T06:21:28.219Z,7.00
2023-01-07T06:23:31.260Z,7.00
2023-01-07T06:25:33.046Z,7.00
2023-01-07T06:27:34.850Z,7.00
2023-01-07T06:29:36.577Z,7.00
2023-01-07T06:31:38.270Z,6.90
2023-01-07T06:33:40.680Z,6.90
2023-01-07T06:35:42.360Z,6.90
2023-01-07T06:37:44.525Z,6.90
2023-01-07T06:39:46.399Z,6.90
2023-01-07T06:41:48.153Z,6.90
2023-01-07T06:43:49.898Z,6.80
2023-01-07T06:45:51.729Z,6.80
2023-01-07T06:47:53.472Z,6.80
2023-01-07T06:49:55.249Z,6.80
2023-01-07T06:51:56.995Z,6.80
2023-01-07T06:53:58.756Z,6.80
2023-01-07T06:56:00.417Z,6.80
2023-01-07T06:58:02.471Z,6.80
2023-01-07T07:00:04.998Z,6.80
2023-01-07T07:02:07.053Z,6.80
2023-01-07T07:04:08.782Z,6.80
2023-01-07T07:06:11.109Z,6.80
2023-01-07T07:08:12.850Z,6.90
2023-01-07T07:10:14.943Z,6.80
2023-01-07T07:12:17.656Z,6.80
2023-01-07T07:14:19.397Z,6.80
2023-01-07T07:16:22.504Z,6.80
2023-01-07T07:18:24.368Z,6.70
2023-01-07T07:20:26.109Z,6.70
2023-01-07T07:22:27.848Z,6.70
2023-01-07T07:24:29.616Z,6.70
2023-01-07T07:26:31.279Z,6.80
2023-01-07T07:28:32.992Z,6.80
2023-01-07T07:30:46.364Z,6.70
2023-01-07T07:32:49.623Z,6.80
2023-01-07T07:34:51.641Z,6.80
2023-01-07T07:36:53.340Z,6.80
2023-01-07T07:38:55.024Z,6.80
2023-01-07T07:40:57.023Z,6.80
2023-01-07T07:43:10.966Z,6.80
2023-01-07T07:45:16.308Z,6.80
2023-01-07T07:47:18.261Z,6.80
2023-01-07T07:49:20.093Z,6.80
2023-01-07T07:51:21.840Z,6.80
2023-01-07T07:53:23.883Z,6.80
2023-01-07T07:55:26.641Z,6.80
2023-01-07T07:57:28.523Z,6.80
2023-01-07T07:59:30.794Z,6.80
2023-01-07T08:01:32.596Z,6.80
2023-01-07T08:03:34.448Z,6.80
2023-01-07T08:05:39.632Z,6.80
2023-01-07T08:07:42.535Z,6.90
2023-01-07T08:09:44.182Z,6.80
2023-01-07T08:11:45.856Z,6.90
2023-01-07T08:13:47.527Z,6.90
2023-01-07T08:15:49.349Z,7.00
2023-01-07T08:18:01.015Z,7.00
2023-01-07T08:20:04.048Z,6.90
2023-01-07T08:22:05.811Z,6.90
2023-01-07T08:24:07.653Z,6.90
2023-01-07T08:26:09.327Z,6.90
2023-01-07T08:28:11.961Z,6.90
2023-01-07T08:30:13.862Z,6.90
2023-01-07T08:32:15.631Z,7.00
2023-01-07T08:34:17.601Z,7.00
2023-01-07T08:36:23.125Z,7.00
2023-01-07T08:38:26.450Z,7.10
2023-01-07T08:40:28.140Z,7.00
2023-01-07T08:42:30.728Z,7.10
2023-01-07T08:44:34.518Z,7.10
2023-01-07T08:46:36.415Z,7.10
2023-01-07T08:48:40.175Z,7.10
2023-01-07T08:50:41.982Z,7.10
2023-01-07T08:52:46.894Z,7.20
2023-01-07T08:54:49.503Z,7.10
2023-01-07T08:56:51.517Z,7.10
2023-01-07T08:58:53.183Z,7.10
2023-01-07T09:00:55.157Z,7.10
2023-01-07T09:02:56.909Z,7.20
2023-01-07T09:04:58.710Z,7.20
2023-01-07T09:07:00.427Z,7.20
2023-01-07T09:09:02.069Z,7.20
2023-01-07T09:11:03.963Z,7.20
2023-01-07T09:13:05.637Z,7.30
2023-01-07T09:15:08.382Z,7.30
2023-01-07T09:17:10.523Z,7.30
2023-01-07T09:19:12.286Z,7.30
2023-01-07T09:21:14.206Z,7.40
2023-01-07T09:23:16.360Z,7.40
2023-01-07T09:25:18.329Z,7.60
2023-01-07T09:27:20.175Z,7.60
2023-01-07T09:29:21.831Z,7.80
2023-01-07T09:31:24.517Z,7.80
2023-01-07T09:33:26.302Z,7.80
2023-01-07T09:35:28.003Z,7.80
2023-01-07T09:37:29.798Z,7.90
2023-01-07T09:39:31.807Z,7.90
2023-01-07T09:41:48.483Z,8.00
2023-01-07T09:43:59.611Z,7.90
2023-01-07T09:46:08.712Z,7.90
2023-01-07T09:48:19.711Z,7.80
2023-01-07T09:50:39.671Z,7.80
2023-01-07T09:52:48.873Z,7.80
2023-01-07T09:54:56.771Z,7.80
2023-01-07T09:56:58.699Z,7.80
2023-01-07T09:59:01.533Z,7.90
2023-01-07T10:01:22.132Z,8.00
2023-01-07T10:03:47.236Z,8.00
2023-01-07T10:06:42.641Z,8.10
2023-01-07T10:08:45.235Z,8.20
2023-01-07T10:10:55.739Z,8.30
2023-01-07T10:13:15.436Z,8.30
2023-01-07T10:15:44.195Z,8.40
2023-01-07T10:17:54.963Z,8.50
2023-01-07T10:20:02.716Z,8.60
2023-01-07T10:22:22.064Z,8.60
2023-01-07T10:24:34.024Z,8.70
2023-01-07T10:26:40.671Z,8.60
2023-01-07T10:28:49.072Z,8.70
2023-01-07T10:30:53.728Z,9.40
2023-01-07T10:33:02.637Z,10.30
2023-01-07T10:35:12.772Z,11.20
2023-01-07T10:37:28.250Z,12.40
2023-01-07T10:39:33.047Z,12.90
2023-01-07T10:42:20.438Z,12.40
2023-01-07T10:44:48.418Z,12.30
2023-01-07T10:47:18.461Z,12.20
2023-01-07T10:49:34.802Z,11.70
2023-01-07T10:52:09.729Z,11.40
2023-01-07T10:54:30.075Z,11.70
2023-01-07T10:56:41.301Z,12.30
2023-01-07T10:58:46.056Z,13.20
2023-01-07T11:00:48.420Z,14.00
2023-01-07T11:02:57.583Z,14.00
2023-01-07T11:05:00.051Z,13.80
2023-01-07T11:07:07.207Z,14.50
2023-01-07T11:09:15.350Z,14.10
2023-01-07T11:11:20.196Z,13.50
2023-01-07T11:13:31.833Z,13.60
2023-01-07T11:15:44.843Z,13.70
2023-01-07T11:17:55.900Z,13.50
2023-01-07T11:19:57.814Z,13.90
2023-01-07T11:21:59.541Z,13.80
2023-01-07T11:24:02.047Z,13.80
2023-01-07T11:26:14.733Z,13.50
2023-01-07T11:28:26.391Z,13.20
2023-01-07T11:30:32.065Z,12.90
2023-01-07T11:32:40.553Z,12.70
2023-01-07T11:34:53.656Z,12.70
2023-01-07T11:36:55.706Z,12.90
2023-01-07T11:39:10.412Z,12.90
2023-01-07T11:41:26.711Z,12.40
2023-01-07T11:43:39.084Z,12.20
2023-01-07T11:46:19.563Z,12.20
2023-01-07T11:48:23.948Z,11.80
2023-01-07T11:50:43.900Z,11.80
2023-01-07T11:53:00.440Z,11.80
2023-01-07T11:55:02.380Z,11.50
2023-01-07T11:57:26.484Z,11.30
2023-01-07T11:59:30.232Z,11.50
2023-01-07T12:01:48.523Z,11.90
2023-01-07T12:03:53.046Z,12.10
2023-01-07T12:06:01.224Z,12.20
2023-01-07T12:08:03.310Z,11.90
2023-01-07T12:10:28.728Z,12.10
2023-01-07T12:12:39.362Z,12.00
2023-01-07T12:14:47.512Z,11.50
2023-01-07T12:16:51.762Z,11.60
2023-01-07T12:19:02.073Z,12.00
2023-01-07T12:21:16.202Z,12.50
2023-01-07T12:23:56.011Z,12.80
2023-01-07T12:26:13.901Z,13.00
2023-01-07T12:28:19.767Z,12.70
2023-01-07T12:30:51.047Z,11.90
2023-01-07T12:32:59.130Z,12.00
2023-01-07T12:35:21.119Z,12.10
2023-01-07T12:37:32.354Z,12.10
2023-01-07T12:39:37.946Z,12.50
2023-01-07T12:41:44.914Z,12.70
2023-01-07T12:43:58.856Z,12.60
2023-01-07T12:46:04.794Z,12.50
2023-01-07T12:48:18.821Z,12.00
2023-01-07T12:50:34.223Z,11.90
2023-01-07T12:52:40.534Z,11.80
2023-01-07T12:54:55.974Z,11.90
2023-01-07T12:57:04.173Z,11.90
2023-01-07T12:59:47.369Z,12.00
2023-01-07T13:01:54.907Z,12.30
2023-01-07T13:04:17.844Z,12.20
2023-01-07T13:06:52.941Z,12.10
2023-01-07T13:08:57.925Z,12.40
2023-01-07T13:11:18.065Z,12.30
2023-01-07T13:13:30.897Z,12.20
2023-01-07T13:15:38.993Z,12.30
2023-01-07T13:17:40.999Z,12.10
2023-01-07T13:19:43.299Z,12.50
2023-01-07T13:21:49.599Z,12.40
2023-01-07T13:24:21.692Z,12.40
2023-01-07T13:27:00.310Z,12.50
2023-01-07T13:29:11.158Z,12.30
2023-01-07T13:31:31.612Z,12.40
2023-01-07T13:33:51.347Z,12.50
2023-01-07T13:36:27.216Z,12.40
2023-01-07T13:38:47.517Z,12.40
2023-01-07T13:41:10.187Z,12.40
2023-01-07T13:43:46.006Z,12.60
2023-01-07T13:46:00.149Z,12.40
2023-01-07T13:48:05.707Z,12.90
2023-01-07T13:50:22.270Z,12.90
2023-01-07T13:52:27.047Z,12.70
2023-01-07T13:54:50.605Z,12.70
2023-01-07T13:56:52.686Z,12.30
2023-01-07T13:58:58.140Z,12.30
2023-01-07T14:01:12.307Z,12.30
2023-01-07T14:03:33.077Z,12.20
2023-01-07T14:05:34.862Z,11.80
2023-01-07T14:07:49.254Z,11.40
2023-01-07T14:09:56.457Z,11.60
2023-01-07T14:12:23.994Z,11.50
2023-01-07T14:14:56.017Z,11.40
2023-01-07T14:17:16.596Z,11.30
2023-01-07T14:19:41.803Z,11.20
2023-01-07T14:21:53.082Z,11.30
2023-01-07T14:24:25.144Z,11.40
2023-01-07T14:27:00.465Z,11.20
2023-01-07T14:29:26.748Z,10.90
2023-01-07T14:31:30.171Z,10.80
2023-01-07T14:33:39.521Z,10.70
2023-01-07T14:35:42.977Z,10.30
2023-01-07T14:37:49.301Z,10.00
2023-01-07T14:39:50.969Z,9.90
2023-01-07T14:42:20.428Z,9.70
2023-01-07T14:44:27.396Z,9.60
2023-01-07T14:46:45.226Z,9.50
2023-01-07T14:49:22.699Z,9.50
2023-01-07T14:51:49.609Z,9.40
2023-01-07T14:54:21.135Z,9.20
2023-01-07T14:56:31.491Z,9.00
2023-01-07T14:58:40.010Z,9.00
2023-01-07T15:01:09.260Z,8.90
2023-01-07T15:03:38.828Z,8.90
2023-01-07T15:06:00.664Z,8.80
2023-01-07T15:08:25.902Z,8.60
2023-01-07T15:10:49.210Z,8.50
2023-01-07T15:13:15.058Z,8.50
2023-01-07T15:15:56.556Z,8.40
2023-01-07T15:17:58.566Z,8.30
2023-01-07T15:20:04.562Z,8.20
2023-01-07T15:22:23.236Z,8.10
2023-01-07T15:24:39.997Z,8.00
2023-01-07T15:27:06.669Z,7.90
2023-01-07T15:29:26.771Z,7.80
2023-01-07T15:31:37.015Z,7.80
2023-01-07T15:34:06.511Z,7.70
2023-01-07T15:36:12.387Z,7.70
2023-01-07T15:38:41.389Z,7.70
2023-01-07T15:40:47.111Z,7.60
2023-01-07T15:42:51.671Z,7.60
2023-01-07T15:44:58.449Z,7.60
2023-01-07T15:47:00.435Z,7.50
2023-01-07T15:49:24.462Z,7.40
2023-01-07T15:51:26.121Z,7.40
2023-01-07T15:53:30.122Z,7.30
2023-01-07T15:55:40.598Z,7.30
2023-01-07T15:57:44.066Z,7.30
2023-01-07T15:59:48.777Z,7.20
2023-01-07T16:01:58.762Z,7.20
2023-01-07T16:04:00.568Z,7.20
2023-01-07T16:06:03.304Z,7.10
2023-01-07T16:08:06.140Z,7.10
2023-01-07T16:10:18.503Z,7.00
2023-01-07T16:12:31.350Z,7.00
2023-01-07T16:14:36.275Z,7.00
2023-01-07T16:16:38.405Z,7.00
2023-01-07T16:18:41.250Z,7.10
2023-01-07T16:20:57.463Z,7.00
2023-01-07T16:23:19.809Z,6.90
2023-01-07T16:25:32.311Z,6.90
2023-01-07T16:27:34.064Z,6.80
2023-01-07T16:29:50.068Z,6.90
2023-01-07T16:31:52.297Z,6.80
2023-01-07T16:33:57.023Z,6.80
2023-01-07T16:36:01.417Z,6.80
2023-01-07T16:38:03.678Z,6.70
2023-01-07T16:40:15.120Z,6.80
2023-01-07T16:42:23.127Z,6.80
2023-01-07T16:44:39.815Z,6.70
2023-01-07T16:46:45.532Z,6.70
2023-01-07T16:48:48.893Z,6.70
2023-01-07T16:50:50.678Z,6.60
2023-01-07T16:52:56.553Z,6.60
2023-01-07T16:54:58.575Z,6.60
2023-01-07T16:57:12.175Z,6.50
2023-01-07T16:59:15.431Z,6.50
2023-01-07T17:01:37.877Z,6.60
2023-01-07T17:04:00.705Z,6.50
2023-01-07T17:06:07.449Z,6.50
2023-01-07T17:08:18.634Z,6.40
2023-01-07T17:10:29.381Z,6.50
2023-01-07T17:12:40.799Z,6.40
2023-01-07T17:14:49.598Z,6.40
2023-01-07T17:17:20.565Z,6.40
2023-01-07T17:19:25.780Z,6.30
2023-01-07T17:21:38.155Z,6.30
2023-01-07T17:23:42.655Z,6.30
2023-01-07T17:25:44.760Z,6.30
2023-01-07T17:27:51.188Z,6.30
2023-01-07T17:29:53.630Z,6.30
2023-01-07T17:31:55.553Z,6.30
2023-01-07T17:33:57.488Z,6.20
2023-01-07T17:35:59.230Z,6.20
2023-01-07T17:38:00.928Z,6.20
2023-01-07T17:40:02.686Z,6.20
2023-01-07T17:42:40.070Z,6.10
2023-01-07T17:44:41.903Z,6.10
2023-01-07T17:46:43.578Z,6.00
2023-01-07T17:48:45.336Z,6.00
2023-01-07T17:50:47.036Z,6.10
2023-01-07T17:52:54.722Z,6.00
2023-01-07T17:54:56.532Z,6.00
2023-01-07T17:56:58.570Z,6.00
2023-01-07T17:59:00.635Z,5.90
2023-01-07T18:01:07.047Z,5.90
2023-01-07T18:03:09.499Z,5.90
2023-01-07T18:05:18.117Z,5.90
2023-01-07T18:07:19.859Z,5.90
2023-01-07T18:09:21.498Z,5.90
2023-01-07T18:11:45.110Z,6.00
2023-01-07T18:13:49.029Z,5.90
2023-01-07T18:15:50.752Z,5.90
2023-01-07T18:17:52.607Z,5.80
2023-01-07T18:19:54.713Z,5.80
2023-01-07T18:21:56.619Z,5.80
2023-01-07T18:23:58.367Z,5.70
2023-01-07T18:26:00.186Z,5.70
2023-01-07T18:28:01.976Z,5.60
2023-01-07T18:30:04.028Z,5.60
2023-01-07T18:32:05.958Z,5.50
2023-01-07T18:34:12.093Z,5.60
2023-01-07T18:36:14.030Z,5.60
2023-01-07T18:38:16.671Z,5.60
2023-01-07T18:40:19.018Z,5.60
2023-01-07T18:42:20.820Z,5.70
2023-01-07T18:44:23.513Z,5.70
2023-01-07T18:46:25.387Z,5.80
2023-01-07T18:48:27.310Z,5.80
2023-01-07T18:50:29.208Z,5.80
2023-01-07T18:52:31.253Z,5.80
2023-01-07T18:54:33.628Z,5.80
2023-01-07T18:56:35.501Z,5.80
2023-01-07T18:58:38.487Z,5.70
2023-01-07T19:00:41.256Z,5.70
2023-01-07T19:02:42.929Z,5.70
2023-01-07T19:04:46.580Z,5.60
2023-01-07T19:06:48.294Z,5.60
2023-01-07T19:08:50.074Z,5.60
2023-01-07T19:10:51.944Z,5.60
2023-01-07T19:12:53.667Z,5.60
2023-01-07T19:14:55.673Z,5.70
2023-01-07T19:16:57.696Z,5.70
2023-01-07T19:18:59.634Z,5.70
2023-01-07T19:21:05.782Z,5.70
2023-01-07T19:23:07.532Z,5.70
2023-01-07T19:25:09.973Z,5.80
2023-01-07T19:27:12.335Z,5.80
2023-01-07T19:29:15.211Z,5.90
2023-01-07T19:31:16.982Z,5.90
2023-01-07T19:33:18.794Z,5.80
2023-01-07T19:35:20.480Z,5.80
2023-01-07T19:37:22.245Z,5.90
2023-01-07T19:39:24.392Z,5.90
2023-01-07T19:41:26.906Z,5.90
2023-01-07T19:43:28.532Z,5.80
2023-01-07T19:45:30.231Z,5.80
2023-01-07T19:47:32.309Z,5.90
2023-01-07T19:49:34.272Z,5.90
2023-01-07T19:51:38.667Z,5.90
2023-01-07T19:53:40.569Z,6.00
2023-01-07T19:55:42.245Z,6.00
2023-01-07T19:57:43.913Z,6.10
2023-01-07T19:59:45.692Z,6.20
2023-01-07T20:01:49.573Z,6.20
2023-01-07T20:03:51.586Z,6.20
2023-01-07T20:05:53.309Z,6.20
2023-01-07T20:07:55.327Z,6.20
2023-01-07T20:09:57.282Z,6.20
2023-01-07T20:11:58.976Z,6.20
2023-01-07T20:14:00.812Z,6.10
2023-01-07T20:16:10.783Z,6.10
2023-01-07T20:18:15.060Z,6.10
2023-01-07T20:20:16.959Z,6.10
2023-01-07T20:22:18.873Z,6.00
2023-01-07T20:24:20.563Z,6.00
2023-01-07T20:26:28.783Z,5.90
2023-01-07T20:28:30.515Z,5.90
2023-01-07T20:30:32.224Z,5.80
2023-01-07T20:32:34.385Z,5.80
2023-01-07T20:34:36.075Z,5.80
2023-01-07T20:36:37.923Z,5.90
2023-01-07T20:38:40.172Z,5.90
2023-01-07T20:40:42.894Z,5.90
2023-01-07T20:42:44.590Z,5.90
2023-01-07T20:44:47.193Z,6.00
2023-01-07T20:46:48.905Z,6.00
2023-01-07T20:48:51.013Z,6.00
2023-01-07T20:50:52.845Z,6.00
2023-01-07T20:52:54.534Z,6.00
2023-01-07T20:54:56.194Z,5.90
2023-01-07T20:56:58.513Z,5.90
2023-01-07T20:59:01.621Z,6.00
2023-01-07T21:01:17.623Z,6.00
2023-01-07T21:03:19.680Z,6.00
2023-01-07T21:05:23.169Z,5.90
2023-01-07T21:07:24.889Z,5.90
2023-01-07T21:09:26.966Z,5.90
2023-01-07T21:11:28.787Z,5.80
2023-01-07T21:13:30.753Z,5.80
2023-01-07T21:15:32.623Z,5.80
2023-01-07T21:17:34.459Z,5.80
2023-01-07T21:19:38.948Z,5.70
2023-01-07T21:21:40.618Z,5.70
2023-01-07T21:23:42.823Z,5.70
2023-01-07T21:25:48.135Z,5.70
2023-01-07T21:27:50.045Z,5.70
2023-01-07T21:29:51.786Z,5.70
2023-01-07T21:31:53.553Z,5.70
2023-01-07T21:33:57.117Z,5.70
2023-01-07T21:35:58.977Z,5.70
2023-01-07T21:38:00.794Z,5.70
2023-01-07T21:40:03.415Z,5.70
2023-01-07T21:42:05.330Z,5.70
2023-01-07T21:44:07.388Z,5.60
2023-01-07T21:46:10.117Z,5.70
2023-01-07T21:48:11.835Z,5.70
2023-01-07T21:50:15.119Z,5.70
2023-01-07T21:52:17.439Z,5.70
2023-01-07T21:54:19.271Z,5.60
2023-01-07T21:56:21.607Z,5.60
2023-01-07T21:58:24.102Z,5.60
2023-01-07T22:00:25.824Z,5.70
2023-01-07T22:02:27.588Z,5.70
2023-01-07T22:04:29.694Z,5.70
2023-01-07T22:06:36.773Z,5.70
2023-01-07T22:08:38.435Z,5.70
2023-01-07T22:10:40.126Z,5.70
2023-01-07T22:12:41.907Z,5.70
2023-01-07T22:14:43.680Z,5.70
2023-01-07T22:16:48.119Z,5.70
2023-01-07T22:18:51.062Z,5.60
2023-01-07T22:20:55.787Z,5.60
2023-01-07T22:22:57.443Z,5.70
2023-01-07T22:24:59.107Z,5.80
2023-01-07T22:27:00.773Z,5.80
2023-01-07T22:29:07.683Z,5.80
2023-01-07T22:31:32.582Z,5.80
2023-01-07T22:33:34.382Z,5.90
2023-01-07T22:35:36.241Z,5.90
2023-01-07T22:37:38.122Z,5.90
2023-01-07T22:39:44.193Z,5.90
2023-01-07T22:41:46.796Z,5.90
2023-01-07T22:43:48.466Z,5.90
2023-01-07T22:46:02.712Z,6.00
2023-01-07T22:48:05.365Z,6.00
2023-01-07T22:50:08.668Z,6.10
2023-01-07T22:52:11.341Z,6.00
2023-01-07T22:54:13.315Z,6.00
2023-01-07T22:56:15.048Z,6.00
2023-01-07T22:58:18.031Z,6.10
2023-01-07T23:00:58.380Z,6.00
2023-01-07T23:03:00.030Z,6.00
2023-01-07T23:05:01.824Z,6.00
2023-01-07T23:07:03.597Z,5.90
2023-01-07T23:09:05.433Z,5.80
2023-01-07T23:11:07.594Z,5.80
2023-01-07T23:13:09.630Z,5.80
2023-01-07T23:15:12.986Z,5.90
2023-01-07T23:17:14.719Z,6.00
2023-01-07T23:19:17.471Z,6.10
2023-01-07T23:21:19.159Z,6.10
2023-01-07T23:23:20.906Z,6.10
2023-01-07T23:25:22.576Z,6.10
2023-01-07T23:27:24.260Z,6.20
2023-01-07T23:29:26.336Z,6.10
2023-01-07T23:31:28.099Z,6.00
2023-01-07T23:33:29.823Z,6.00
2023-01-07T23:35:31.522Z,5.90
2023-01-07T23:37:33.471Z,6.00
2023-01-07T23:39:35.223Z,6.00
2023-01-07T23:41:37.043Z,5.90
2023-01-07T23:43:38.900Z,5.80
2023-01-07T23:45:40.786Z,5.80
2023-01-07T23:47:43.065Z,5.80
2023-01-07T23:49:44.721Z,5.80
2023-01-07T23:51:46.765Z,5.90
2023-01-07T23:53:48.856Z,5.90
2023-01-07T23:55:55.469Z,5.80
2023-01-07T23:57:57.284Z,5.80
2023-01-07T23:59:58.985Z,5.70
